Time;durP1;ratioP1;P1;durP2;ratioP2;P2;SDS_P1;SDS_P2;PMS_P1;PMS_P2;Temp;Humidity;BMP_temperature;BMP_pressure;BME280_temperature;BME280_humidity;BME280_pressure;Samples;Min_cycle;Max_cycle;Signal;HPM_P1;HPM_P2
2021/10/24 00:02:23;;;;;;;15.25;10.52;;;;;;;-142.75;100.00;78438.81;4985225;28;20395;-67
2021/10/24 00:04:48;;;;;;;15.80;10.95;;;;;;;-142.75;100.00;78438.81;4992604;28;20018;-67
2021/10/24 00:07:14;;;;;;;14.52;10.77;;;;;;;-142.75;100.00;78425.03;4991624;28;20050;-67
2021/10/24 00:09:39;;;;;;;18.58;10.73;;;;;;;-142.75;100.00;78427.00;4993546;28;20038;-67
2021/10/24 00:12:05;;;;;;;16.15;11.05;;;;;;;-142.75;100.00;78440.78;5015664;23;20045;-70
2021/10/24 00:14:30;;;;;;;19.45;10.35;;;;;;;-142.75;100.00;78442.75;5009944;28;20030;-70
2021/10/24 00:16:56;;;;;;;19.52;10.80;;;;;;;-142.75;100.00;78434.88;5013251;28;20117;-69
2021/10/24 00:19:22;;;;;;;18.23;10.90;;;;;;;-142.75;100.00;78436.84;5013260;28;20105;-68
2021/10/24 00:21:47;;;;;;;16.88;10.95;;;;;;;-142.75;100.00;78440.78;5002767;28;20027;-69
2021/10/24 00:24:12;;;;;;;18.00;11.10;;;;;;;-142.75;100.00;78452.59;4991468;28;20122;-70
2021/10/24 00:26:37;;;;;;;18.63;9.98;;;;;;;-142.75;100.00;78438.81;4993332;28;20026;-69
2021/10/24 00:29:03;;;;;;;17.10;11.30;;;;;;;-142.75;100.00;78438.81;4993547;28;20052;-69
2021/10/24 00:31:28;;;;;;;21.00;11.00;;;;;;;-142.75;100.00;78438.81;4992670;28;20365;-68
2021/10/24 00:33:54;;;;;;;15.90;10.40;;;;;;;-142.75;100.00;78440.78;4991971;28;20034;-70
2021/10/24 00:36:20;;;;;;;17.77;10.70;;;;;;;-142.75;100.00;78440.78;4993745;28;20054;-70
2021/10/24 00:38:46;;;;;;;15.00;11.15;;;;;;;-142.75;100.00;78434.88;4991633;28;20488;-71
2021/10/24 00:41:11;;;;;;;16.50;10.70;;;;;;;-142.75;100.00;78448.66;4992298;28;20041;-70
2021/10/24 00:43:38;;;;;;;16.15;11.00;;;;;;;-142.75;100.00;78454.56;4993405;28;20364;-71
2021/10/24 00:46:03;;;;;;;18.23;11.80;;;;;;;-142.75;100.00;78446.69;4993149;28;20023;-69
2021/10/24 00:48:28;;;;;;;15.23;11.27;;;;;;;-142.75;100.00;78456.53;4993246;28;20053;-69
2021/10/24 00:50:54;;;;;;;17.27;10.90;;;;;;;-142.75;100.00;78452.59;4991819;28;20281;-69
2021/10/24 00:53:19;;;;;;;19.17;10.73;;;;;;;-142.75;100.00;78456.53;4992915;28;20033;-69
2021/10/24 00:55:45;;;;;;;19.17;11.43;;;;;;;-142.75;100.00;78462.44;4992915;28;20028;-69
2021/10/24 00:58:12;;;;;;;18.98;10.50;;;;;;;-142.75;100.00;78472.28;4993160;28;20095;-67
2021/10/24 01:00:38;;;;;;;22.48;11.35;;;;;;;-142.75;100.00;78476.22;4992643;28;20054;-69
2021/10/24 01:03:03;;;;;;;17.55;11.18;;;;;;;-142.75;100.00;78476.22;4993110;28;20115;-69
2021/10/24 01:05:30;;;;;;;16.45;11.55;;;;;;;-142.75;100.00;78486.06;4992583;28;20037;-69
2021/10/24 01:07:58;;;;;;;19.45;11.77;;;;;;;-142.75;100.00;78493.97;4992611;28;20027;-69
2021/10/24 01:10:24;;;;;;;17.77;12.20;;;;;;;-142.75;100.00;78499.88;4992995;28;20463;-69
2021/10/24 01:12:50;;;;;;;16.15;11.85;;;;;;;-142.75;100.00;78490.00;4992707;28;20053;-69
2021/10/24 01:15:16;;;;;;;;;;;;;;;-142.75;100.00;78495.94;4992898;28;20037;-70
2021/10/24 01:17:41;;;;;;;19.17;11.57;;;;;;;-142.75;100.00;78503.81;4992950;28;19921;-69
2021/10/24 01:20:08;;;;;;;19.05;11.80;;;;;;;-142.75;100.00;78503.81;4992756;28;20033;-70
2021/10/24 01:22:38;;;;;;;16.33;11.10;;;;;;;-142.75;100.00;78513.66;4992549;28;20033;-70
2021/10/24 01:25:06;;;;;;;17.90;12.07;;;;;;;-142.75;100.00;78519.56;4992469;28;20035;-71
2021/10/24 01:27:33;;;;;;;20.93;12.53;;;;;;;-142.75;100.00;78521.53;4989441;28;20084;-70
2021/10/24 01:29:59;;;;;;;17.50;11.43;;;;;;;-142.75;100.00;78521.53;4992786;28;20388;-69
2021/10/24 01:32:25;;;;;;;19.73;11.70;;;;;;;-142.75;100.00;78531.38;4993125;28;20061;-69
2021/10/24 01:34:51;;;;;;;24.02;12.93;;;;;;;-142.75;100.00;78564.84;4992546;28;20128;-70
2021/10/24 01:37:16;;;;;;;18.88;12.63;;;;;;;-142.75;100.00;78553.03;4992450;28;20029;-71
2021/10/24 01:39:42;;;;;;;18.58;12.73;;;;;;;-142.75;100.00;78555.00;4992627;28;20030;-69
2021/10/24 01:42:08;;;;;;;19.55;12.45;;;;;;;-142.75;100.00;78566.81;4992090;28;20115;-69
2021/10/24 01:44:33;;;;;;;18.25;12.38;;;;;;;-142.75;100.00;78582.59;4992201;28;20031;-69
2021/10/24 01:46:59;;;;;;;21.25;12.35;;;;;;;-142.75;100.00;78588.50;4992156;28;20510;-71
2021/10/24 01:49:24;;;;;;;18.65;12.40;;;;;;;-142.75;100.00;78606.22;4992157;28;20026;-69
2021/10/24 01:51:50;;;;;;;17.53;11.70;;;;;;;-142.75;100.00;78606.22;4990134;28;20545;-70
2021/10/24 01:54:15;;;;;;;19.75;12.55;;;;;;;-142.75;100.00;78614.09;4990579;28;20277;-69
2021/10/24 01:56:40;;;;;;;20.00;12.90;;;;;;;-142.75;100.00;78620.00;4992165;28;20407;-69
2021/10/24 01:59:06;;;;;;;18.90;12.83;;;;;;;-142.75;100.00;78620.00;4992029;28;20033;-70
2021/10/24 02:01:31;;;;;;;19.33;12.70;;;;;;;-142.75;100.00;78621.97;4992760;28;20726;-69
2021/10/24 02:03:56;;;;;;;19.15;12.70;;;;;;;-142.75;100.00;78623.94;4991428;28;20034;-69
2021/10/24 02:06:22;;;;;;;17.80;12.48;;;;;;;-142.75;100.00;78633.78;4990682;28;20403;-69
2021/10/24 02:08:47;;;;;;;20.13;12.70;;;;;;;-142.75;100.00;78637.72;4991735;28;20022;-70
2021/10/24 02:11:12;;;;;;;19.93;12.60;;;;;;;-142.75;100.00;78637.72;4991876;28;20080;-69
2021/10/24 02:13:38;;;;;;;20.98;12.95;;;;;;;-142.75;100.00;78641.66;4990585;28;20274;-69
2021/10/24 02:16:04;;;;;;;21.83;13.23;;;;;;;-142.75;100.00;78643.63;4990185;28;20026;-69
2021/10/24 02:18:30;;;;;;;17.73;12.93;;;;;;;-142.75;100.00;78637.72;4990318;28;20558;-69
2021/10/24 02:20:55;;;;;;;18.70;12.73;;;;;;;-142.75;100.00;78637.72;4991626;28;20097;-71
2021/10/24 02:23:20;;;;;;;21.42;14.38;;;;;;;-142.75;100.00;78637.72;4991667;28;20129;-70
2021/10/24 02:25:45;;;;;;;19.40;13.57;;;;;;;-142.75;100.00;78649.53;4991138;28;20026;-70
2021/10/24 02:28:11;;;;;;;18.50;13.60;;;;;;;-142.75;100.00;78653.47;4991603;28;20281;-70
2021/10/24 02:30:36;;;;;;;20.35;12.98;;;;;;;-142.75;100.00;78653.47;4990523;28;20037;-70
2021/10/24 02:33:02;;;;;;;20.98;13.38;;;;;;;-142.75;100.00;78661.34;4991440;28;20029;-69
2021/10/24 02:35:27;;;;;;;22.73;15.18;;;;;;;-142.75;100.00;78669.25;4991132;28;20077;-70
2021/10/24 02:37:53;;;;;;;20.80;14.68;;;;;;;-142.75;100.00;78663.31;4991342;28;20106;-73
2021/10/24 02:40:20;;;;;;;21.67;13.40;;;;;;;-142.75;100.00;78657.41;4991240;28;20105;-69
2021/10/24 02:42:48;;;;;;;22.00;13.90;;;;;;;-142.75;100.00;78663.31;4990092;28;20041;-70
2021/10/24 02:45:13;;;;;;;19.40;13.63;;;;;;;-142.75;100.00;78677.13;4988761;28;20022;-70
2021/10/24 02:47:39;;;;;;;23.70;13.57;;;;;;;-142.75;100.00;78673.19;4991001;28;20420;-70
2021/10/24 02:50:05;;;;;;;23.00;13.93;;;;;;;-142.75;100.00;78685.00;4991087;28;20504;-70
2021/10/24 02:52:31;;;;;;;20.48;13.88;;;;;;;-142.75;100.00;78692.88;4991014;28;20460;-69
2021/10/24 02:54:56;;;;;;;19.25;13.48;;;;;;;-142.75;100.00;78681.06;4989631;28;20117;-70
2021/10/24 02:57:21;;;;;;;19.13;14.25;;;;;;;-142.75;100.00;78679.09;4990953;28;20113;-70
2021/10/24 02:59:47;;;;;;;21.60;13.87;;;;;;;-142.75;100.00;78685.00;4991237;28;20022;-69
2021/10/24 03:02:12;;;;;;;18.58;13.77;;;;;;;-142.75;100.00;78686.97;4991346;28;20277;-69
2021/10/24 03:04:37;;;;;;;17.87;13.50;;;;;;;-142.75;100.00;78694.84;4989430;28;20030;-68
2021/10/24 03:07:03;;;;;;;18.53;13.83;;;;;;;-142.75;100.00;78692.88;4989552;28;20327;-69
2021/10/24 03:09:28;;;;;;;18.27;13.05;;;;;;;-142.75;100.00;78690.91;4990964;28;20034;-73
2021/10/24 03:11:54;;;;;;;20.40;14.40;;;;;;;-142.75;100.00;78698.78;4990694;28;20093;-69
2021/10/24 03:14:19;;;;;;;24.67;14.05;;;;;;;-142.75;100.00;78702.72;4990655;28;20057;-69
2021/10/24 03:16:45;;;;;;;19.40;14.68;;;;;;;-142.75;100.00;78696.81;4989669;28;20022;-70
2021/10/24 03:19:11;;;;;;;20.90;14.18;;;;;;;-142.75;100.00;78700.75;4990867;28;20030;-70
2021/10/24 03:21:36;;;;;;;22.25;15.07;;;;;;;-142.75;100.00;78704.69;4990791;28;20507;-69
2021/10/24 03:24:04;;;;;;;20.38;14.07;;;;;;;-142.75;100.00;78716.50;4990603;28;20034;-69
2021/10/24 03:26:30;;;;;;;21.03;14.47;;;;;;;-142.75;100.00;78720.44;4990772;28;20027;-70
2021/10/24 03:28:55;;;;;;;19.05;14.20;;;;;;;-142.75;100.00;78732.25;4990878;28;20034;-69
2021/10/24 03:31:20;;;;;;;23.50;14.23;;;;;;;-142.75;100.00;78718.47;4991218;28;20077;-67
2021/10/24 03:33:46;;;;;;;18.88;14.35;;;;;;;-142.75;100.00;78738.16;4990489;28;20280;-67
2021/10/24 03:36:11;;;;;;;19.38;13.82;;;;;;;-142.75;100.00;78746.03;4990667;28;20028;-69
2021/10/24 03:38:37;;;;;;;21.15;14.52;;;;;;;-142.75;100.00;78746.03;4990668;28;20484;-68
2021/10/24 03:41:02;;;;;;;16.85;13.50;;;;;;;-142.75;100.00;78744.09;4990585;28;20030;-69
2021/10/24 03:43:29;;;;;;;16.02;13.13;;;;;;;-142.75;100.00;78748.03;4990538;28;20030;-69
2021/10/24 03:45:56;;;;;;;20.63;13.90;;;;;;;-142.75;100.00;78755.91;4989124;28;20034;-69
2021/10/24 03:48:22;;;;;;;19.30;13.60;;;;;;;-142.75;100.00;78748.03;4990629;28;20031;-69
2021/10/24 03:50:47;;;;;;;17.58;13.40;;;;;;;-142.75;100.00;78748.03;4990587;28;20030;-71
2021/10/24 03:53:12;;;;;;;17.60;12.55;;;;;;;-142.75;100.00;78748.03;4990612;28;20636;-69
2021/10/24 03:55:38;;;;;;;18.03;12.97;;;;;;;-142.75;100.00;78751.97;4990200;28;20029;-70
2021/10/24 03:58:03;;;;;;;22.30;13.87;;;;;;;-142.75;100.00;78753.94;4990809;28;20360;-69
2021/10/24 04:00:29;;;;;;;15.73;13.02;;;;;;;-142.75;100.00;78751.97;4989668;28;20791;-69
2021/10/24 04:03:00;;;;;;;17.27;13.83;;;;;;;-142.75;100.00;78751.97;4991103;28;20026;-69
2021/10/24 04:05:27;;;;;;;18.40;14.00;;;;;;;-142.75;100.00;78755.91;4990645;28;20033;-67
2021/10/24 04:07:54;;;;;;;19.80;13.43;;;;;;;-142.75;100.00;78757.88;4990437;28;20038;-71
2021/10/24 04:10:21;;;;;;;18.00;13.77;;;;;;;-142.75;100.00;78771.66;4990270;28;20500;-68
2021/10/24 04:12:47;;;;;;;18.67;14.07;;;;;;;-142.75;100.00;78781.50;4990208;28;20527;-69
2021/10/24 04:15:14;;;;;;;18.63;13.43;;;;;;;-142.75;100.00;78783.47;4993763;28;20097;-69
2021/10/24 04:17:39;;;;;;;20.60;12.87;;;;;;;-142.75;100.00;78791.34;4992604;28;20030;-70
2021/10/24 04:20:10;;;;;;;21.17;14.10;;;;;;;-142.75;100.00;78799.22;4994157;28;20094;-69
2021/10/24 04:22:36;;;;;;;19.47;14.13;;;;;;;-142.75;100.00;78807.09;4992444;28;20049;-71
2021/10/24 04:25:03;;;;;;;20.40;13.53;;;;;;;-142.75;100.00;78797.25;4992220;28;20499;-70
2021/10/24 04:27:29;;;;;;;19.00;14.23;;;;;;;-142.75;100.00;78811.03;4992632;28;20413;-69
2021/10/24 04:29:54;;;;;;;22.75;14.02;;;;;;;-142.75;100.00;78803.16;4993902;28;20072;-71
2021/10/24 04:32:20;;;;;;;19.70;14.73;;;;;;;-142.75;100.00;78807.09;4994232;28;20022;-69
2021/10/24 04:34:45;;;;;;;19.80;14.68;;;;;;;-142.75;100.00;78809.06;4993661;28;20037;-69
2021/10/24 04:37:10;;;;;;;22.13;14.68;;;;;;;-142.75;100.00;78805.13;4992912;28;20026;-69
2021/10/24 04:39:35;;;;;;;21.63;14.83;;;;;;;-142.75;100.00;78814.97;4992268;28;20484;-67
2021/10/24 04:42:01;;;;;;;20.92;15.30;;;;;;;-142.75;100.00;78814.97;4993750;28;20276;-70
2021/10/24 04:44:26;;;;;;;24.73;14.75;;;;;;;-142.75;100.00;78807.09;4993050;28;20026;-69
2021/10/24 04:46:51;;;;;;;19.50;13.83;;;;;;;-142.75;100.00;78811.03;4992200;28;20153;-69
2021/10/24 04:49:17;;;;;;;17.80;13.60;;;;;;;-142.75;100.00;78809.06;4993452;28;20270;-69
2021/10/24 04:51:42;;;;;;;21.08;14.48;;;;;;;-142.75;100.00;78811.03;4993234;28;20029;-69
2021/10/24 04:54:07;;;;;;;22.63;15.00;;;;;;;-142.75;100.00;78822.88;4993246;28;20029;-69
2021/10/24 04:56:33;;;;;;;21.93;14.90;;;;;;;-142.75;100.00;78820.88;4991901;28;20903;-69
2021/10/24 04:58:58;;;;;;;20.37;15.33;;;;;;;-142.75;100.00;78824.84;4993132;28;20522;-72
2021/10/24 05:01:23;;;;;;;20.58;15.15;;;;;;;-142.75;100.00;78822.88;4993477;28;20439;-69
2021/10/24 05:03:49;;;;;;;20.98;15.18;;;;;;;-142.75;100.00;78822.88;4992867;28;20469;-69
2021/10/24 05:06:15;;;;;;;21.90;14.30;;;;;;;-142.75;100.00;78820.88;4992689;28;20034;-70
2021/10/24 05:08:40;;;;;;;20.95;14.98;;;;;;;-142.75;100.00;78816.94;4992991;28;20033;-69
2021/10/24 05:11:06;;;;;;;22.80;16.07;;;;;;;-142.75;100.00;78807.09;4992981;28;20022;-69
2021/10/24 05:13:31;;;;;;;21.63;14.27;;;;;;;-142.75;100.00;78811.03;4991448;28;20281;-70
2021/10/24 05:15:56;;;;;;;22.35;15.95;;;;;;;-142.75;100.00;78814.97;4992555;28;20037;-69
2021/10/24 05:18:22;;;;;;;22.00;14.97;;;;;;;-142.75;100.00;78811.03;4992931;28;20077;-69
2021/10/24 05:20:47;;;;;;;24.27;15.30;;;;;;;-142.75;100.00;78818.91;4992562;28;20269;-68
2021/10/24 05:23:12;;;;;;;19.92;14.65;;;;;;;-142.75;100.00;78811.03;4992675;28;20026;-69
2021/10/24 05:25:38;;;;;;;23.42;14.90;;;;;;;-142.75;100.00;78811.03;4991026;28;20112;-69
2021/10/24 05:28:03;;;;;;;18.85;14.82;;;;;;;-142.75;100.00;78811.03;4992507;28;20113;-69
2021/10/24 05:30:28;;;;;;;25.05;15.30;;;;;;;-142.75;100.00;78816.94;4992585;28;20026;-69
2021/10/24 05:32:53;;;;;;;20.67;14.23;;;;;;;-142.75;100.00;78814.97;4991751;28;20476;-69
2021/10/24 05:35:19;;;;;;;23.17;15.02;;;;;;;-142.75;100.00;78813.00;4992118;28;20332;-69
2021/10/24 05:37:44;;;;;;;24.08;14.88;;;;;;;-142.75;100.00;78814.97;4991299;28;20019;-71
2021/10/24 05:40:11;;;;;;;18.98;14.13;;;;;;;-142.75;100.00;78814.97;4991122;28;20022;-69
2021/10/24 05:42:37;;;;;;;22.77;13.20;;;;;;;-142.75;100.00;78818.91;4992118;28;20030;-71
2021/10/24 05:45:04;;;;;;;24.10;13.60;;;;;;;-142.75;100.00;78818.91;4992248;28;20770;-68
2021/10/24 05:47:29;;;;;;;;;;;;;;;-142.75;100.00;78822.88;4992606;28;20022;-69
2021/10/24 05:49:55;;;;;;;21.23;13.47;;;;;;;-142.75;100.00;78834.69;4992185;28;19921;-69
2021/10/24 05:52:22;;;;;;;18.87;12.97;;;;;;;-142.75;100.00;78830.75;4992146;28;20037;-69
2021/10/24 05:54:47;;;;;;;19.30;13.93;;;;;;;-142.75;100.00;78834.69;4990502;28;20084;-69
2021/10/24 05:57:13;;;;;;;24.42;14.27;;;;;;;-142.75;100.00;78836.66;4992231;28;20519;-69
2021/10/24 05:59:38;;;;;;;23.80;15.30;;;;;;;-142.75;100.00;78836.66;4990519;28;20400;-70
2021/10/24 06:02:03;;;;;;;20.27;13.68;;;;;;;-142.75;100.00;78846.50;4992598;28;20109;-68
2021/10/24 06:04:29;;;;;;;21.98;14.23;;;;;;;-142.75;100.00;78838.63;4991523;28;20087;-69
2021/10/24 06:06:54;;;;;;;21.90;14.53;;;;;;;-142.75;100.00;78838.63;4991549;28;20073;-69
2021/10/24 06:09:28;;;;;;;20.75;14.98;;;;;;;-142.75;100.00;78852.41;4991838;28;20281;-69
2021/10/24 06:12:01;;;;;;;22.57;14.37;;;;;;;-142.75;100.00;78852.41;5005971;22;20135;-67
2021/10/24 06:14:27;;;;;;;22.47;14.97;;;;;;;-142.75;100.00;78858.31;5006839;28;20026;-67
2021/10/24 06:16:52;;;;;;;19.27;14.02;;;;;;;-142.75;100.00;78838.63;5010504;28;20022;-67
2021/10/24 06:19:17;;;;;;;21.40;14.70;;;;;;;-142.75;100.00;78834.69;5011163;28;20072;-67
2021/10/24 06:21:43;;;;;;;21.83;14.57;;;;;;;-142.75;100.00;78838.63;5007318;28;20034;-67
2021/10/24 06:24:08;;;;;;;20.27;13.68;;;;;;;-142.75;100.00;78838.63;4990878;28;20129;-67
2021/10/24 06:26:34;;;;;;;22.83;14.50;;;;;;;-142.75;100.00;78818.91;4990502;28;20030;-67
2021/10/24 06:28:59;;;;;;;24.25;15.10;;;;;;;-142.75;100.00;78807.09;4991049;28;20027;-67
2021/10/24 06:31:24;;;;;;;25.60;14.47;;;;;;;-142.75;100.00;78811.03;4991542;28;20437;-67
2021/10/24 06:33:51;;;;;;;21.13;13.65;;;;;;;-142.75;100.00;78803.16;4990545;28;20274;-66
2021/10/24 06:36:17;;;;;;;21.30;15.10;;;;;;;-142.75;100.00;78787.41;4989987;28;20508;-68
2021/10/24 06:38:42;;;;;;;20.63;14.43;;;;;;;-142.75;100.00;78767.72;4989077;28;20049;-67
2021/10/24 06:41:08;;;;;;;21.65;15.02;;;;;;;-142.75;100.00;78751.97;4990407;28;20031;-67
2021/10/24 06:43:33;;;;;;;24.53;14.40;;;;;;;-142.75;100.00;78736.19;4990277;28;20598;-67
2021/10/24 06:45:58;;;;;;;21.58;14.05;;;;;;;-142.75;100.00;78716.50;4990066;28;20026;-67
2021/10/24 06:48:23;;;;;;;18.90;13.57;;;;;;;-142.75;100.00;78700.75;4990155;28;20049;-67
2021/10/24 06:50:49;;;;;;;22.50;13.73;;;;;;;-142.75;100.00;78673.19;4990293;28;20258;-67
2021/10/24 06:53:14;;;;;;;21.45;12.57;;;;;;;-142.75;100.00;78655.44;4990147;28;20408;-67
2021/10/24 06:55:40;;;;;;;18.53;13.37;;;;;;;-142.75;100.00;78627.88;4990133;28;20385;-68
2021/10/24 06:58:05;;;;;;;21.45;12.25;;;;;;;-142.75;100.00;78598.34;4989876;28;20274;-67
2021/10/24 07:00:30;;;;;;;21.75;12.77;;;;;;;-142.75;100.00;78578.63;4990349;28;20554;-67
2021/10/24 07:02:56;;;;;;;16.43;11.30;;;;;;;-142.75;100.00;78555.00;4991408;28;20033;-67
2021/10/24 07:05:22;;;;;;;17.35;11.10;;;;;;;-142.75;100.00;78541.22;4990174;28;20340;-67
2021/10/24 07:07:48;;;;;;;18.33;10.87;;;;;;;-142.75;100.00;78529.41;4990064;28;20062;-68
2021/10/24 07:10:15;;;;;;;17.10;10.20;;;;;;;-142.75;100.00;78519.56;4990122;28;20053;-67
2021/10/24 07:12:40;;;;;;;15.87;9.33;;;;;;;-142.75;100.00;78497.91;4989840;28;20614;-67
2021/10/24 07:15:07;;;;;;;17.58;10.23;;;;;;;-142.75;100.00;78476.22;4986127;28;20109;-67
2021/10/24 07:17:32;;;;;;;15.97;10.10;;;;;;;-142.75;100.00;78436.84;4988397;28;20031;-67
2021/10/24 07:19:58;;;;;;;12.93;9.77;;;;;;;-142.75;100.00;78401.38;4985758;28;20041;-68
2021/10/24 07:22:23;;;;;;;12.55;9.27;;;;;;;-142.75;100.00;78373.81;4986530;28;20022;-67
2021/10/24 07:24:49;;;;;;;13.77;9.30;;;;;;;-142.75;100.00;78332.47;4989721;28;20028;-67
2021/10/24 07:27:15;;;;;;;16.48;9.48;;;;;;;-142.75;100.00;78310.81;4988326;28;20018;-67
2021/10/24 07:29:41;;;;;;;;;;;;;;;-142.75;100.00;78283.22;4990313;28;20042;-67
2021/10/24 07:32:07;;;;;;;15.37;9.80;;;;;;;-142.75;100.00;78257.63;4990272;28;20326;-67
2021/10/24 07:34:32;;;;;;;;;;;;;;;-142.75;100.00;78263.53;4990302;28;20034;-67
2021/10/24 07:36:58;;;;;;;13.07;8.87;;;;;;;-142.75;100.00;78230.06;4989800;28;20285;-67
2021/10/24 07:39:23;;;;;;;13.07;8.65;;;;;;;-142.75;100.00;78180.81;4988350;28;20081;-67
2021/10/24 07:41:48;;;;;;;10.98;8.40;;;;;;;-142.75;100.00;78139.47;4988352;28;20081;-66
2021/10/24 07:44:18;;;;;;;15.40;8.82;;;;;;;-142.75;98.23;78153.25;4988127;28;20502;-67
2021/10/24 07:46:44;;;;;;;12.20;7.85;;;;;;;-142.75;97.52;78157.19;4989617;28;20403;-67
2021/10/24 07:49:11;;;;;;;15.20;7.73;;;;;;;-142.75;97.11;78161.13;4989664;28;20125;-68
2021/10/24 07:51:36;;;;;;;11.32;7.93;;;;;;;-142.75;96.11;78139.47;4991957;28;20567;-68
2021/10/24 07:54:03;;;;;;;17.10;8.55;;;;;;;-142.75;96.19;78139.47;4993082;28;20018;-68
2021/10/24 07:56:28;;;;;;;13.38;7.47;;;;;;;-142.75;95.21;78102.06;4991404;28;20026;-68
2021/10/24 07:58:55;;;;;;;10.75;7.47;;;;;;;-142.75;94.46;78052.81;4992114;28;20077;-67
2021/10/24 08:01:20;;;;;;;11.55;7.35;;;;;;;-142.75;92.42;78015.41;4987591;28;20488;-67
2021/10/24 08:03:46;;;;;;;10.02;6.95;;;;;;;-142.75;89.21;78007.53;4992970;28;20087;-67
2021/10/24 08:06:12;;;;;;;;;;;;;;;-142.75;89.10;78003.59;4992778;28;20069;-67
2021/10/24 08:08:37;;;;;;;10.75;7.35;;;;;;;-142.75;87.15;78039.03;4992529;28;19918;-67
2021/10/24 08:11:04;;;;;;;10.45;6.60;;;;;;;-142.75;86.63;77976.03;4992491;28;20101;-68
2021/10/24 08:13:29;;;;;;;10.30;6.45;;;;;;;-142.75;85.63;77964.22;4992147;28;20057;-67
2021/10/24 08:15:55;;;;;;;12.45;6.88;;;;;;;-142.75;85.67;77946.50;4991471;28;20069;-67
2021/10/24 08:18:20;;;;;;;15.52;7.40;;;;;;;-142.75;84.83;77905.13;4990903;28;20436;-67
2021/10/24 08:20:47;;;;;;;11.95;6.72;;;;;;;-142.75;85.33;77893.31;4990208;28;20044;-67
2021/10/24 08:23:16;;;;;;;10.68;6.40;;;;;;;-142.75;83.09;77855.91;4988852;28;20069;-68
2021/10/24 08:25:41;;;;;;;10.15;5.72;;;;;;;-142.75;80.15;77865.75;4985936;28;20026;-67
2021/10/24 08:28:06;;;;;;;10.75;5.55;;;;;;;-142.75;80.07;77905.13;4984594;28;20036;-67
2021/10/24 08:30:32;;;;;;;10.77;5.75;;;;;;;-142.75;79.20;77897.25;4985452;28;20039;-67
2021/10/24 08:32:58;;;;;;;13.38;6.18;;;;;;;-142.75;78.60;77859.84;4985932;28;20037;-68
2021/10/24 08:35:23;;;;;;;;;;;;;;;-142.75;78.22;77853.94;4983176;28;20023;-68
2021/10/24 08:37:49;;;;;;;10.98;6.30;;;;;;;-142.75;78.36;77846.06;4981218;28;19964;-67
2021/10/24 08:40:15;;;;;;;;;;;;;;;-142.75;78.65;77822.44;4987807;28;20112;-67
2021/10/24 08:42:41;;;;;;;10.07;5.60;;;;;;;-142.75;78.00;77830.31;4991964;28;20060;-67
2021/10/24 08:45:10;;;;;;;;;;;;;;;-142.75;77.43;77798.81;4990913;28;20030;-67
2021/10/24 08:47:35;;;;;;;12.55;5.43;;;;;;;-142.75;77.09;77765.34;4990481;28;20597;-68
2021/10/24 08:50:01;;;;;;;8.25;5.28;;;;;;;-142.75;74.50;77731.88;4992000;28;20026;-67
2021/10/24 08:52:27;;;;;;;8.55;5.40;;;;;;;-142.75;74.10;77722.00;4991648;28;20056;-68
2021/10/24 08:54:54;;;;;;;11.95;4.63;;;;;;;-142.75;73.57;77716.09;4991783;28;20046;-68
2021/10/24 08:57:27;;;;;;;10.52;5.60;;;;;;;-142.75;73.74;77688.53;4991678;28;20019;-68
2021/10/24 08:59:53;;;;;;;7.97;4.85;;;;;;;-142.75;73.43;77680.66;4990119;28;20027;-68
2021/10/24 09:02:19;;;;;;;8.10;5.00;;;;;;;-142.75;71.86;77647.19;4991744;28;20034;-68
2021/10/24 09:04:52;;;;;;;9.43;4.60;;;;;;;-142.75;70.47;77619.63;4990183;28;20025;-68
2021/10/24 09:07:22;;;;;;;9.57;4.72;;;;;;;-142.75;70.67;77637.34;4991266;28;20048;-69
2021/10/24 09:09:48;;;;;;;8.93;4.95;;;;;;;-142.75;69.65;77674.75;4991469;28;20033;-67
2021/10/24 09:12:15;;;;;;;13.07;5.03;;;;;;;-142.75;70.27;77662.94;4991266;28;20034;-68
2021/10/24 09:14:48;;;;;;;9.55;4.60;;;;;;;-142.75;70.44;77629.47;4991124;28;20034;-67
2021/10/24 09:17:30;;;;;;;8.48;4.47;;;;;;;-142.75;69.13;77641.28;4987108;28;20029;-68
2021/10/24 09:20:01;;;;;;;8.27;4.30;;;;;;;-142.75;68.16;77696.41;4991242;28;20030;-67
2021/10/24 09:22:31;;;;;;;10.57;5.03;;;;;;;-142.75;69.72;77594.03;4990983;28;20034;-68
2021/10/24 09:25:13;;;;;;;10.75;4.60;;;;;;;-142.75;69.06;77566.47;4990969;28;20040;-68
2021/10/24 09:27:54;;;;;;;9.48;4.63;;;;;;;-142.75;66.77;77580.25;4990969;28;20065;-68
2021/10/24 09:30:27;;;;;;;9.00;4.10;;;;;;;-142.75;66.67;77641.28;4987800;28;20022;-68
2021/10/24 09:33:10;;;;;;;7.10;4.30;;;;;;;-142.75;67.44;77605.84;4980683;28;20030;-68
2021/10/24 09:35:44;;;;;;;9.10;4.45;;;;;;;-142.75;66.73;77546.78;4987643;28;20536;-68
2021/10/24 09:38:18;;;;;;;8.70;4.88;;;;;;;-142.75;66.36;77554.66;4990767;28;20392;-68
2021/10/24 09:40:50;;;;;;;5.65;4.13;;;;;;;-142.75;64.04;77527.09;4990205;28;20022;-68
2021/10/24 09:43:20;;;;;;;9.23;4.55;;;;;;;-142.75;64.25;77534.97;4990046;28;20026;-69
2021/10/24 09:46:09;;;;;;;8.25;4.45;;;;;;;-142.75;64.44;77523.16;4988569;28;20014;-68
2021/10/24 09:48:36;;;;;;;9.07;4.53;;;;;;;-142.75;64.10;77499.53;4991240;28;20117;-69
2021/10/24 09:51:10;;;;;;;8.25;4.60;;;;;;;-142.75;64.67;77444.38;4989382;28;20053;-69
2021/10/24 09:53:38;;;;;;;8.77;4.70;;;;;;;-142.75;63.72;77442.41;4991117;28;20034;-68
2021/10/24 09:56:07;;;;;;;7.68;4.30;;;;;;;-142.75;63.64;77450.28;4989487;28;20030;-68
2021/10/24 09:58:34;;;;;;;6.93;4.45;;;;;;;-142.75;62.87;77426.66;4988642;28;20084;-68
2021/10/24 10:01:02;;;;;;;6.65;4.20;;;;;;;-142.75;62.85;77462.13;4990937;28;20029;-68
2021/10/24 10:03:28;;;;;;;9.57;4.30;;;;;;;-142.75;62.72;77442.41;4991402;28;20034;-68
2021/10/24 10:05:54;;;;;;;8.65;4.93;;;;;;;-142.75;62.62;77410.91;4989555;28;20029;-69
2021/10/24 10:08:20;;;;;;;10.82;4.70;;;;;;;-142.75;63.81;77349.88;4990440;28;20552;-69
2021/10/24 10:10:53;;;;;;;9.38;5.07;;;;;;;-142.75;60.99;77349.88;4989467;28;20026;-69
2021/10/24 10:13:22;;;;;;;7.90;4.50;;;;;;;-142.75;60.94;77312.47;4990034;28;20117;-68
2021/10/24 10:15:49;;;;;;;7.03;3.97;;;;;;;-142.75;59.92;77379.41;4990104;28;20749;-68
2021/10/24 10:18:15;;;;;;;7.55;4.28;;;;;;;-142.75;59.68;77401.06;4990739;28;20022;-68
2021/10/24 10:20:47;;;;;;;7.35;4.43;;;;;;;-142.75;60.13;77399.09;4990538;28;20388;-68
2021/10/24 10:23:14;;;;;;;9.43;4.93;;;;;;;-142.75;60.25;77408.94;4989232;28;20093;-69
2021/10/24 10:25:41;;;;;;;5.70;4.57;;;;;;;-142.75;60.40;77436.50;4990532;28;20038;-69
2021/10/24 10:28:08;;;;;;;9.70;5.43;;;;;;;-142.75;60.66;77391.22;4988829;28;20040;-68
2021/10/24 10:30:42;;;;;;;8.90;4.65;;;;;;;-142.75;59.94;77338.06;4990281;28;20022;-68
2021/10/24 10:33:34;;;;;;;7.97;4.88;;;;;;;-142.75;58.24;77298.69;4989536;28;20018;-68
2021/10/24 10:36:06;;;;;;;8.80;4.60;;;;;;;-142.75;57.81;77318.38;4990105;28;20014;-68
2021/10/24 10:38:35;;;;;;;8.32;4.30;;;;;;;-142.75;57.04;77304.59;4986843;28;20030;-68
2021/10/24 10:41:02;;;;;;;8.93;4.93;;;;;;;-142.75;58.15;77302.63;4983076;28;20027;-69
2021/10/24 10:43:27;;;;;;;10.25;4.88;;;;;;;-142.75;58.26;77288.84;4988251;28;20089;-68
2021/10/24 10:45:58;;;;;;;7.50;4.40;;;;;;;-142.75;57.93;77227.81;4986837;28;20070;-68
2021/10/24 10:48:43;;;;;;;9.57;5.35;;;;;;;-142.75;57.44;77237.66;4990914;28;20112;-68
2021/10/24 10:51:25;;;;;;;7.80;4.70;;;;;;;-142.75;55.64;77186.47;4989325;28;20034;-68
2021/10/24 10:53:57;;;;;;;9.18;5.18;;;;;;;-142.75;57.15;77227.81;4991388;28;20519;-68
2021/10/24 10:56:25;;;;;;;8.38;4.65;;;;;;;-142.75;55.70;77192.38;4991312;28;20034;-68
2021/10/24 10:58:53;;;;;;;7.93;4.43;;;;;;;-142.75;55.12;77198.28;4991759;28;20361;-68
2021/10/24 11:01:28;;;;;;;7.07;4.20;;;;;;;-142.75;55.45;77263.25;4991350;28;20431;-68